Data for 11/02/2018

Time Sea-Level Adjusted Pressure Absolute Pressure Temperature Relative Humidity Dew Point   
(mb) (inHg) (mb) (inHg) (C) (F) (%) (C) (F)
00:05 1017 30.03 846 24.98 5.1 41.2 91 3.7 38.6
00:10 1017 30.03 846 24.98 5.1 41.2 90 3.7 38.6
00:15 1017 30.03 846 24.98 5.1 41.1 90 3.6 38.5
00:20 1017 30.03 846 24.98 5.1 41.2 90 3.6 38.5
00:25 1017 30.03 846 24.98 5.2 41.3 90 3.6 38.5
00:30 1017 30.03 846 24.98 5.2 41.4 90 3.6 38.6
00:35 1017 30.03 846 24.98 5.4 41.7 88 3.7 38.6
00:40 1017 30.03 846 24.98 5.8 42.4 86 3.7 38.6
00:45 1017 30.03 846 24.98 5.9 42.6 85 3.6 38.5
00:50 1017 30.03 846 24.98 6 42.8 84 3.5 38.4
00:55 1017 30.03 846 24.98 6.1 43 83 3.4 38.1
01:00 1017 30.03 846 24.98 6.2 43.1 82 3.3 37.9
01:05 1017 30.03 846 24.98 6.4 43.5 81 3.4 38.1
01:10 1017 30.03 846 24.98 6.4 43.5 82 3.5 38.3
01:15 1017 30.03 846 24.98 6.4 43.4 81 3.3 37.9
01:20 1017 30.03 846 24.98 6.5 43.6 81 3.4 38
01:25 1017 30.03 846 24.98 6.6 43.9 77 2.9 37.2
01:30 1017 30.03 846 24.98 6.9 44.5 77 3.2 37.7
01:35 1017 30.03 846 24.98 7 44.6 76 3.1 37.6
01:40 1017 30.03 846 24.98 7.1 44.8 76 3.2 37.7
01:45 1017 30.03 846 24.98 7.1 44.8 77 3.3 38
01:50 1017 30.03 846 24.98 6.9 44.5 79 3.5 38.2
01:55 1017 30.03 846 24.98 6.8 44.3 78 3.2 37.8
02:00 1017 30.03 846 24.98 6.9 44.5 77 3.2 37.8
02:05 1017 30.03 846 24.98 7.1 44.7 77 3.3 38
02:10 1017 30.03 846 24.98 7 44.7 77 3.3 37.9
02:15 1017 30.03 846 24.98 7.1 44.8 76 3.2 37.8
02:20 1017 30.03 846 24.98 7.2 44.9 75 3.1 37.6
02:25 1016 30 846 24.98 7.3 45.2 74 3 37.5
02:30 1016 30 846 24.98 7.4 45.3 74 3 37.5
02:35 1016 30 846 24.98 7.5 45.4 72 2.8 37.1
02:40 1016 30 846 24.98 7.7 45.8 73 3.2 37.7
02:45 1016 30 846 24.98 7.6 45.7 72 2.9 37.3
02:50 1016 30 846 24.98 7.8 46 70 2.7 36.8
02:55 1016 30 846 24.98 7.9 46.3 70 2.8 37.1
03:00 1016 30 845 24.95 8 46.5 69 2.8 37
03:05 1016 30 846 24.98 8.1 46.5 70 3 37.4
03:10 1016 30 845 24.95 7.9 46.3 71 3 37.4
03:15 1016 30 845 24.95 7.9 46.3 70 2.8 37.1
03:20 1016 30 845 24.95 8 46.5 69 2.8 37
03:25 1016 30 845 24.95 8.1 46.5 69 2.8 37.1
03:30 1016 30 845 24.95 8.1 46.6 69 2.8 37.1
03:35 1016 30 845 24.95 8.1 46.6 67 2.4 36.4
03:40 1016 30 845 24.95 8.3 46.9 67 2.5 36.5
03:45 1016 30 845 24.95 8.4 47.1 66 2.4 36.4
03:50 1016 30 845 24.95 8.5 47.2 66 2.5 36.4
03:55 1016 30 845 24.95 8.5 47.3 65 2.3 36.2
04:00 1015 29.97 845 24.95 8.6 47.5 64 2.3 36.1
04:05 1015 29.97 845 24.95 8.9 48 62 2.1 35.7
04:10 1015 29.97 845 24.95 9.1 48.4 62 2.2 36
04:15 1015 29.97 845 24.95 9.1 48.4 62 2.3 36.1
04:20 1015 29.97 844 24.92 9.2 48.5 61 2.1 35.7
04:25 1015 29.97 844 24.92 9.3 48.8 60 1.9 35.4
04:30 1015 29.97 844 24.92 9.5 49 59 1.9 35.3
04:35 1015 29.97 844 24.92 9.7 49.4 58 1.8 35.2
04:40 1015 29.97 844 24.92 9.7 49.4 58 1.9 35.5
04:45 1015 29.97 844 24.92 9.7 49.4 58 1.8 35.3
04:50 1015 29.97 844 24.92 9.7 49.4 58 1.8 35.3
04:55 1015 29.97 844 24.92 9.6 49.3 59 2 35.6
05:00 1015 29.97 844 24.92 9.4 48.8 61 2.2 36
05:05 1015 29.97 844 24.92 9.1 48.4 62 2.3 36.2
05:10 1015 29.97 844 24.92 8.9 48 63 2.1 35.9
05:15 1015 29.97 844 24.92 8.8 47.8 63 2.1 35.9
05:20 1015 29.97 844 24.92 8.8 47.8 63 2.2 35.9
05:25 1014 29.94 844 24.92 8.9 48 63 2.2 35.9
05:30 1014 29.94 844 24.92 9.3 48.7 60 1.9 35.4
05:35 1014 29.94 843 24.89 9.9 49.9 53 1 33.8
05:40 1014 29.94 843 24.89 10.5 50.9 54 1.6 35
05:45 1014 29.94 843 24.89 10.3 50.6 56 1.9 35.5
05:50 1014 29.94 843 24.89 10 49.9 57 1.9 35.4
05:55 1014 29.94 843 24.89 9.9 49.9 57 1.9 35.5
06:00 1014 29.94 843 24.89 9.8 49.6 58 2 35.6
06:05 1014 29.94 843 24.89 9.7 49.4 59 2.1 35.7
06:10 1014 29.94 843 24.89 9.4 48.9 61 2.2 35.9
06:15 1014 29.94 843 24.89 9.2 48.6 60 1.9 35.5
06:20 1014 29.94 843 24.89 9.3 48.7 60 2 35.6
06:25 1014 29.94 843 24.89 9.4 48.8 59 1.9 35.4
06:30 1013 29.91 843 24.89 9.7 49.5 54 1 33.7
06:35 1013 29.91 842 24.86 10.5 51 50 0.7 33.3
06:40 1013 29.91 842 24.86 11 51.8 50 1 33.8
06:45 1013 29.91 842 24.86 11.1 51.9 49 0.8 33.4
06:50 1013 29.91 842 24.86 11.1 51.9 49 0.9 33.6
06:55 1013 29.91 842 24.86 11 51.8 49 0.7 33.3
07:00 1013 29.91 842 24.86 11 51.8 49 0.8 33.4
07:05 1013 29.91 842 24.86 11 51.8 48 0.3 32.6
07:10 1013 29.91 842 24.86 11.2 52.1 46 0.1 32.1
07:15 1013 29.91 842 24.86 11.4 52.4 43 -0.6 31
07:20 1013 29.91 842 24.86 11.5 52.6 45 -0 32
07:25 1013 29.91 842 24.86 11.3 52.3 45 -0.2 31.7
07:30 1013 29.91 842 24.86 11.3 52.4 45 -0.1 31.8
07:35 1013 29.91 842 24.86 11.2 52.1 46 0.1 32.2
07:40 1013 29.91 842 24.86 11.1 52 46 -0.2 31.7
07:45 1012 29.88 842 24.86 11.2 52.2 45 -0.3 31.4
07:50 1012 29.88 842 24.86 11.2 52.2 46 0.2 32.3
07:55 1012 29.88 841 24.83 11.1 51.9 49 0.7 33.2
08:00 1012 29.88 841 24.83 10.8 51.5 49 0.6 33.1
08:05 1012 29.88 841 24.83 10.6 51 49 0.3 32.6
08:10 1012 29.88 841 24.83 10.6 51.1 49 0.5 32.8
08:15 1012 29.88 841 24.83 10.6 51 50 0.7 33.3
08:20 1012 29.88 841 24.83 10.6 51.1 48 -0 32
08:25 1012 29.88 841 24.83 10.8 51.5 47 -0.1 31.8
08:30 1012 29.88 841 24.83 11.1 51.9 44 -0.7 30.8
08:35 1012 29.88 841 24.83 11.3 52.3 44 -0.5 31.1
08:40 1012 29.88 841 24.83 11.3 52.3 44 -0.3 31.4
08:45 1012 29.88 841 24.83 11.3 52.3 43 -0.7 30.7
08:50 1012 29.88 841 24.83 11.5 52.7 43 -0.7 30.8
08:55 1012 29.88 841 24.83 11.5 52.8 42 -0.8 30.5
09:00 1012 29.88 841 24.83 11.6 52.8 41 -1 30.2
09:05 1011 29.85 841 24.83 11.6 52.9 40 -1.4 29.5
09:10 1011 29.85 841 24.83 11.7 53.1 39 -1.8 28.7
09:15 1011 29.85 841 24.83 11.9 53.4 38 -2 28.3
09:20 1011 29.85 841 24.83 12 53.6 38 -1.7 29
09:25 1011 29.85 840 24.81 11.9 53.5 39 -1.6 29.2
09:30 1011 29.85 840 24.81 12 53.6 37 -2.3 27.8
09:35 1011 29.85 840 24.81 12.1 53.8 37 -2.3 27.9
09:40 1011 29.85 840 24.81 12.2 54 33 -3.6 25.6
09:45 1011 29.85 840 24.81 12.5 54.5 33 -3.1 26.4
09:50 1011 29.85 840 24.81 12.3 54.2 35 -2.8 27
09:55 1011 29.85 840 24.81 12.2 53.9 35 -2.6 27.2
10:00 1011 29.85 840 24.81 12.1 53.7 35 -2.9 26.7
10:05 1011 29.85 840 24.81 12.1 53.7 37 -2.3 27.9
10:10 1011 29.85 840 24.81 12 53.5 36 -2.8 27
10:15 1011 29.85 840 24.81 12.2 54 35 -2.8 27
10:20 1011 29.85 840 24.81 12.2 53.9 36 -2.4 27.7
10:25 1011 29.85 840 24.81 12.1 53.8 32 -4.2 24.4
10:30 1010 29.83 840 24.81 12.4 54.3 33 -3.4 25.8
10:35 1010 29.83 839 24.78 12.4 54.2 33 -3.6 25.5
10:40 1010 29.83 839 24.78 12.4 54.2 31 -4.1 24.7
10:45 1010 29.83 839 24.78 12.4 54.4 32 -3.6 25.5
10:50 1010 29.83 839 24.78 12.4 54.2 33 -3.5 25.7
10:55 1010 29.83 839 24.78 12.3 54.1 33 -3.5 25.8
11:00 1010 29.83 839 24.78 12.3 54.1 33 -3.7 25.4
11:05 1010 29.83 839 24.78 12.4 54.3 33 -3.5 25.7
11:10 1010 29.83 839 24.78 12.3 54.2 34 -3 26.7
11:15 1010 29.83 839 24.78 12.2 53.9 33 -3.5 25.8
11:20 1010 29.83 839 24.78 12.3 54.1 31 -4.1 24.6
11:25 1010 29.83 839 24.78 12.5 54.5 31 -4 24.8
11:30 1010 29.83 839 24.78 12.6 54.7 31 -4.2 24.5
11:35 1010 29.83 839 24.78 12.8 55 31 -4.1 24.7
11:40 1010 29.83 839 24.78 12.8 55 32 -3.4 25.9
11:45 1010 29.83 839 24.78 12.5 54.6 33 -3.4 25.9
11:50 1010 29.83 839 24.78 12.4 54.3 32 -3.7 25.3
11:55 1010 29.83 839 24.78 12.3 54.2 33 -3.4 25.9
12:00 1010 29.83 839 24.78 12.2 53.9 34 -3.3 26.1
12:05 1010 29.83 839 24.78 12.1 53.7 35 -2.7 27.1
12:10 1010 29.83 839 24.78 11.8 53.3 37 -2.5 27.5
12:15 1010 29.83 839 24.78 11.7 53 37 -2.5 27.5
12:20 1010 29.83 839 24.78 11.5 52.8 38 -2.1 28.3
12:25 1010 29.83 839 24.78 11.5 52.7 38 -2.3 27.9
12:30 1010 29.83 839 24.78 11.4 52.5 40 -1.7 28.9
12:35 1010 29.83 839 24.78 11.2 52.2 41 -1.5 29.3
12:40 1010 29.83 839 24.78 11 51.8 43 -1.2 29.9
12:45 1010 29.83 839 24.78 10.9 51.6 44 -0.7 30.7
12:50 1010 29.83 839 24.78 10.8 51.5 47 0.1 32.2
12:55 1010 29.83 839 24.78 10.7 51.2 47 -0 32
13:00 1010 29.83 839 24.78 10.4 50.7 51 0.8 33.4
13:05 1010 29.83 839 24.78 10 50 53 0.8 33.5
13:10 1010 29.83 840 24.81 9.8 49.7 53 0.7 33.3
13:15 1010 29.83 840 24.81 9.9 49.8 53 0.7 33.3
13:20 1010 29.83 840 24.81 9.8 49.6 55 1.2 34.2
13:25 1011 29.85 840 24.81 9.5 49.1 57 1.5 34.7
13:30 1011 29.85 840 24.81 9.3 48.7 59 1.7 35.1
13:35 1011 29.85 840 24.81 9.2 48.5 59 1.6 34.9
13:40 1011 29.85 840 24.81 9.1 48.4 59 1.6 34.9
13:45 1011 29.85 840 24.81 9 48.3 61 1.9 35.5
13:50 1011 29.85 840 24.81 9 48.2 61 1.8 35.2
13:55 1011 29.85 840 24.81 9.1 48.4 56 0.9 33.6
14:00 1011 29.85 840 24.81 9.5 49.1 52 0.3 32.6
14:05 1011 29.85 840 24.81 9.7 49.5 52 0.5 32.9
14:10 1011 29.85 840 24.81 9.8 49.6 52 0.5 33
14:15 1011 29.85 840 24.81 9.6 49.3 58 1.7 35
14:20 1011 29.85 840 24.81 9.1 48.3 59 1.4 34.6
14:25 1011 29.85 840 24.81 9 48.2 57 1 33.8
14:30 1011 29.85 840 24.81 9.2 48.5 55 0.7 33.2
14:35 1010 29.83 840 24.81 9.4 48.8 55 0.9 33.5
14:40 1010 29.83 840 24.81 9.5 49 55 0.9 33.7
14:45 1010 29.83 840 24.81 9.5 49.1 56 1.1 34
14:50 1011 29.85 840 24.81 9.5 49 56 1.1 33.9
14:55 1011 29.85 840 24.81 9.6 49.2 56 1.3 34.3
15:00 1011 29.85 840 24.81 9.7 49.4 55 1 33.7
15:05 1011 29.85 840 24.81 9.8 49.7 51 0.3 32.5
15:10 1011 29.85 840 24.81 10 50.1 52 0.8 33.4
15:15 1011 29.85 840 24.81 10 49.9 53 0.8 33.5
15:20 1011 29.85 840 24.81 9.8 49.6 55 1.3 34.3
15:25 1011 29.85 840 24.81 9.7 49.4 58 1.9 35.5
15:30 1011 29.85 840 24.81 9.4 49 60 2.2 35.9
15:35 1011 29.85 840 24.81 9.2 48.5 60 2 35.5
15:40 1011 29.85 840 24.81 9.1 48.4 62 2.4 36.2
15:45 1011 29.85 840 24.81 9 48.3 61 2 35.6
15:50 1010 29.83 840 24.81 9 48.2 62 2.2 35.9
15:55 1010 29.83 840 24.81 9 48.2 62 2 35.7
16:00 1011 29.85 840 24.81 9 48.2 63 2.3 36.1
16:05 1011 29.85 840 24.81 8.9 48.1 64 2.5 36.5
16:10 1011 29.85 840 24.81 8.9 48 62 2 35.5
16:15 1012 29.88 841 24.83 8.5 47.3 66 2.5 36.5
16:20 1012 29.88 841 24.83 6.7 44.1 73 2.2 36
16:25 1012 29.88 841 24.83 5.8 42.5 76 1.9 35.5
16:30 1012 29.88 841 24.83 5.6 42.1 77 1.9 35.4
16:35 1012 29.88 842 24.86 5.5 41.9 78 2 35.6
16:40 1013 29.91 842 24.86 5.3 41.5 80 2.1 35.7
16:45 1013 29.91 842 24.86 5.2 41.3 81 2.1 35.8
16:50 1013 29.91 842 24.86 5.1 41.2 80 1.9 35.5
16:55 1013 29.91 842 24.86 5.2 41.3 80 2 35.6
17:00 1013 29.91 842 24.86 5.2 41.4 80 2 35.6
17:05 1013 29.91 842 24.86 5.3 41.5 79 1.9 35.5
17:10 1013 29.91 842 24.86 5.4 41.7 77 1.7 35.1
17:15 1013 29.91 842 24.86 5.5 42 77 1.7 35.1
17:20 1013 29.91 842 24.86 5.7 42.2 75 1.6 34.9
17:25 1013 29.91 842 24.86 5.8 42.4 74 1.5 34.8
17:30 1013 29.91 842 24.86 5.8 42.5 74 1.5 34.7
17:35 1013 29.91 842 24.86 5.8 42.5 73 1.4 34.6
17:40 1013 29.91 843 24.89 5.8 42.5 74 1.5 34.7
17:45 1014 29.94 843 24.89 5.8 42.5 74 1.5 34.7
17:50 1014 29.94 843 24.89 5.6 42.1 76 1.7 35.1
17:55 1014 29.94 843 24.89 5.3 41.6 79 2 35.5
18:00 1014 29.94 843 24.89 5.2 41.3 77 1.5 34.8
18:05 1014 29.94 843 24.89 5.2 41.4 77 1.6 34.9
18:10 1014 29.94 843 24.89 5.3 41.6 76 1.4 34.5
18:15 1014 29.94 843 24.89 5.5 41.9 75 1.4 34.6
18:20 1014 29.94 843 24.89 5.6 42.1 74 1.4 34.4
18:25 1014 29.94 843 24.89 5.9 42.6 69 0.6 33
18:30 1014 29.94 843 24.89 6.2 43.2 69 1 33.8
18:35 1014 29.94 843 24.89 6.3 43.3 68 0.8 33.5
18:40 1014 29.94 843 24.89 6.4 43.5 65 0.3 32.5
18:45 1014 29.94 844 24.92 6.6 43.9 64 0.4 32.7
18:50 1015 29.97 844 24.92 6.7 44 63 0.2 32.3
18:55 1015 29.97 844 24.92 6.7 44.1 62 -0.1 31.9
19:00 1015 29.97 844 24.92 6.8 44.2 63 0.3 32.6
19:05 1015 29.97 844 24.92 6.7 44 63 0.1 32.2
19:10 1015 29.97 844 24.92 6.6 43.9 63 0.1 32.2
19:15 1015 29.97 844 24.92 6.6 43.8 61 -0.5 31.2
19:20 1015 29.97 844 24.92 6.8 44.2 58 -0.8 30.6
19:25 1015 29.97 844 24.92 6.9 44.5 57 -1.1 30.1
19:30 1015 29.97 844 24.92 7 44.6 57 -0.9 30.4
19:35 1015 29.97 844 24.92 6.9 44.5 58 -0.8 30.6
19:40 1015 29.97 844 24.92 6.8 44.3 57 -1 30.2
19:45 1014 29.94 844 24.92 6.8 44.3 56 -1.3 29.7
19:50 1014 29.94 844 24.92 6.8 44.3 56 -1.4 29.5
19:55 1014 29.94 844 24.92 6.9 44.4 54 -1.7 29
20:00 1014 29.94 844 24.92 6.9 44.5 54 -1.7 28.9
20:05 1015 29.97 844 24.92 7 44.6 53 -1.9 28.6
20:10 1015 29.97 844 24.92 7 44.6 53 -2 28.5
20:15 1015 29.97 844 24.92 7 44.6 53 -1.9 28.7
20:20 1015 29.97 844 24.92 6.9 44.5 53 -1.9 28.6
20:25 1015 29.97 844 24.92 6.9 44.4 54 -1.7 28.9
20:30 1015 29.97 844 24.92 6.8 44.3 54 -1.8 28.7
20:35 1015 29.97 844 24.92 6.8 44.3 53 -2.1 28.3
20:40 1015 29.97 844 24.92 6.8 44.2 55 -1.6 29
20:45 1015 29.97 844 24.92 6.6 43.9 56 -1.4 29.5
20:50 1015 29.97 844 24.92 6.5 43.7 57 -1.3 29.6
20:55 1015 29.97 845 24.95 6.5 43.6 56 -1.6 29.1
21:00 1015 29.97 845 24.95 6.4 43.6 58 -1.3 29.7
21:05 1016 30 845 24.95 6.4 43.5 58 -1.2 29.9
21:10 1016 30 845 24.95 6.3 43.4 59 -1.1 30
21:15 1016 30 845 24.95 6.4 43.5 57 -1.4 29.5
21:20 1016 30 845 24.95 6.4 43.5 57 -1.4 29.4
21:25 1016 30 845 24.95 6.4 43.6 57 -1.5 29.3
21:30 1016 30 845 24.95 6.5 43.6 57 -1.4 29.4
21:35 1016 30 845 24.95 6.5 43.6 56 -1.7 29
21:40 1016 30 845 24.95 6.5 43.6 56 -1.6 29.2
21:45 1016 30 845 24.95 6.4 43.5 56 -1.6 29.1
21:50 1016 30 845 24.95 6.4 43.5 57 -1.5 29.2
21:55 1016 30 845 24.95 6.3 43.4 57 -1.7 29
22:00 1016 30 845 24.95 6.3 43.3 57 -1.7 29
22:05 1016 30 846 24.98 6.2 43.2 57 -1.5 29.2
22:10 1016 30 846 24.98 6.2 43.1 57 -1.7 29
22:15 1016 30 846 24.98 6.2 43.2 54 -2.4 27.6
22:20 1017 30.03 846 24.98 6.3 43.4 55 -2 28.5
22:25 1017 30.03 846 24.98 6.2 43.2 56 -1.9 28.6
22:30 1017 30.03 846 24.98 6.1 43 56 -1.9 28.6
22:35 1017 30.03 846 24.98 6.1 43 56 -1.9 28.6
22:40 1017 30.03 846 24.98 6 42.9 56 -2 28.4
22:45 1017 30.03 846 24.98 6 42.8 56 -2.1 28.2
22:50 1017 30.03 846 24.98 6 42.8 56 -2.1 28.2
22:55 1017 30.03 846 24.98 6 42.8 57 -2 28.5
23:00 1017 30.03 846 24.98 5.9 42.7 58 -1.6 29.2
23:05 1017 30.03 846 24.98 5.9 42.5 59 -1.6 29.1
23:10 1017 30.03 846 24.98 5.9 42.5 56 -2.2 28
23:15 1017 30.03 846 24.98 6 42.8 53 -2.8 26.9
23:20 1017 30.03 847 25.01 6 42.9 53 -2.8 27
23:25 1017 30.03 847 25.01 5.9 42.7 54 -2.6 27.4
23:30 1018 30.06 847 25.01 5.8 42.5 54 -2.8 27
23:35 1018 30.06 847 25.01 5.8 42.5 54 -2.7 27.2
23:40 1018 30.06 847 25.01 5.8 42.4 53 -2.9 26.7
23:45 1018 30.06 847 25.01 5.7 42.3 54 -2.8 27
23:50 1018 30.06 847 25.01 5.7 42.2 55 -2.7 27.1
23:55 1018 30.06 847 25.01 5.6 42.1 56 -2.4 27.7
24:00 1018 30.06 847 25.01 5.5 41.9 58 -2.1 28.2